createdAt,value
2023-04-17T00:00:03.073Z,1010.49
2023-04-17T00:05:03.080Z,1010.23
2023-04-17T00:10:03.882Z,1010.23
2023-04-17T00:15:03.088Z,1010.29
2023-04-17T00:20:03.260Z,1010.1
2023-04-17T00:25:03.009Z,1010.04
2023-04-17T00:30:03.123Z,1010.01
2023-04-17T00:35:03.032Z,1010.19
2023-04-17T00:40:03.190Z,1009.93
2023-04-17T00:45:03.293Z,1009.86
2023-04-17T00:50:03.127Z,1009.86
2023-04-17T00:55:02.957Z,1009.93
2023-04-17T01:00:03.096Z,1009.95
2023-04-17T01:05:02.963Z,1010.11
2023-04-17T01:10:03.095Z,1010.15
2023-04-17T01:15:02.999Z,1010.09
2023-04-17T01:20:02.996Z,1010.19
2023-04-17T01:25:02.976Z,1010.09
2023-04-17T01:30:03.185Z,1010.12
2023-04-17T01:35:03.048Z,1010.07
2023-04-17T01:40:03.124Z,1010.12
2023-04-17T01:45:03.137Z,1010.17
2023-04-17T01:50:03.151Z,1010.12
2023-04-17T01:55:03.164Z,1010.02
2023-04-17T02:00:03.131Z,1009.96
2023-04-17T02:05:03.006Z,1009.84
2023-04-17T02:10:03.005Z,1009.79
2023-04-17T02:15:03.041Z,1009.81
2023-04-17T02:20:08.112Z,1009.81
2023-04-17T02:25:03.092Z,1009.89
2023-04-17T02:30:03.162Z,1009.94
2023-04-17T02:35:02.993Z,1009.87
2023-04-17T02:40:03.090Z,1009.91
2023-04-17T02:45:02.947Z,1009.83
2023-04-17T02:50:03.058Z,1009.88
2023-04-17T02:55:02.938Z,1009.92
2023-04-17T03:00:03.230Z,1009.81
2023-04-17T03:05:02.871Z,1009.73
2023-04-17T03:10:03.259Z,1009.71
2023-04-17T03:15:03.029Z,1009.69
2023-04-17T03:20:03.085Z,1009.86
2023-04-17T03:25:02.939Z,1009.65
2023-04-17T03:30:03.119Z,1009.59
2023-04-17T03:35:02.948Z,1009.61
2023-04-17T03:40:03.007Z,1009.63
2023-04-17T03:45:03.015Z,1009.53
2023-04-17T03:50:03.131Z,1009.38
2023-04-17T03:55:03.017Z,1009.41
2023-04-17T04:00:03.147Z,1009.31
2023-04-17T04:05:02.981Z,1009.25
2023-04-17T04:10:03.010Z,1009.36
2023-04-17T04:15:02.961Z,1009.2
2023-04-17T04:20:03.075Z,1009.29
2023-04-17T04:25:02.999Z,1009.3
2023-04-17T04:30:03.242Z,1009.35
2023-04-17T04:35:02.947Z,1009.2
2023-04-17T04:40:03.103Z,1009.17
2023-04-17T04:45:03.049Z,1009.16
2023-04-17T04:50:03.041Z,1009.07
2023-04-17T04:55:02.999Z,1008.92
2023-04-17T05:00:03.047Z,1008.85
2023-04-17T05:05:03.000Z,1008.74
2023-04-17T05:10:03.216Z,1008.72
2023-04-17T05:15:03.038Z,1008.77
2023-04-17T05:20:03.004Z,1008.64
2023-04-17T05:25:02.953Z,1008.59
2023-04-17T05:30:03.004Z,1008.45
2023-04-17T05:35:04.025Z,1008.25
2023-04-17T05:40:03.075Z,1008.15
2023-04-17T05:45:02.913Z,1008.09
2023-04-17T05:50:03.144Z,1008.11
2023-04-17T05:55:03.036Z,1008.05
2023-04-17T06:00:03.060Z,1007.99
2023-04-17T06:05:03.052Z,1007.87
2023-04-17T06:10:03.125Z,1007.75
2023-04-17T06:15:02.997Z,1007.8
2023-04-17T06:20:03.336Z,1007.78
2023-04-17T06:25:02.946Z,1007.67
2023-04-17T06:30:03.070Z,1007.72
2023-04-17T06:35:02.930Z,1007.65
2023-04-17T06:40:03.194Z,1007.51
2023-04-17T06:45:02.937Z,1007.33
2023-04-17T06:50:03.044Z,1007.4
2023-04-17T06:55:02.968Z,1007.31
2023-04-17T07:00:03.109Z,1007.12
2023-04-17T07:05:03.035Z,1007.1
2023-04-17T07:10:03.064Z,1007.01
2023-04-17T07:15:03.078Z,1006.86
2023-04-17T07:20:03.018Z,1006.76
2023-04-17T07:25:02.964Z,1006.96
2023-04-17T07:30:03.180Z,1006.9
2023-04-17T07:35:03.015Z,1006.69
2023-04-17T07:40:03.111Z,1006.99
2023-04-17T07:45:02.979Z,1007.01
2023-04-17T07:50:03.069Z,1007.11
2023-04-17T07:55:02.981Z,1007.13
2023-04-17T08:00:03.015Z,1007.27
2023-04-17T08:05:03.047Z,1007.31
2023-04-17T08:10:03.016Z,1007.24
2023-04-17T08:15:03.008Z,1007.21
2023-04-17T08:20:03.012Z,1007.25
2023-04-17T08:25:02.968Z,1007.17
2023-04-17T08:30:03.086Z,1007.26
2023-04-17T08:35:02.954Z,1007.13
2023-04-17T08:40:02.985Z,1007.14
2023-04-17T08:45:02.961Z,1007.21
2023-04-17T08:50:03.008Z,1007.38
2023-04-17T08:55:02.909Z,1007.3
2023-04-17T09:00:03.034Z,1007.39
2023-04-17T09:05:03.067Z,1006.9
2023-04-17T09:10:03.067Z,1006.79
2023-04-17T09:15:03.003Z,1006.74
2023-04-17T09:20:03.126Z,1006.94
2023-04-17T09:25:03.098Z,1006.89
2023-04-17T09:30:03.145Z,1007.07
2023-04-17T09:35:02.965Z,1007.12
2023-04-17T09:40:03.226Z,1007.02
2023-04-17T09:45:02.990Z,1006.83
2023-04-17T09:50:03.086Z,1006.92
2023-04-17T09:55:02.973Z,1007.15
2023-04-17T10:00:03.138Z,1007.2
2023-04-17T10:05:02.991Z,1007.24
2023-04-17T10:10:03.072Z,1007.22
2023-04-17T10:15:02.879Z,1007.25
2023-04-17T10:20:02.993Z,1007.33
2023-04-17T10:25:03.041Z,1007.33
2023-04-17T10:30:03.021Z,1007.34
2023-04-17T10:35:02.959Z,1007.25
2023-04-17T10:40:03.041Z,1007.24
2023-04-17T10:45:02.951Z,1007.37
2023-04-17T10:50:03.176Z,1007.45
2023-04-17T10:55:02.975Z,1007.53
2023-04-17T11:00:03.007Z,1007.58
2023-04-17T11:05:02.988Z,1007.6
2023-04-17T11:10:03.202Z,1007.69
2023-04-17T11:15:02.987Z,1007.81
2023-04-17T11:20:03.040Z,1007.75
2023-04-17T11:25:02.962Z,1007.62
2023-04-17T11:30:03.111Z,1007.75
2023-04-17T11:35:02.991Z,1007.92
2023-04-17T11:40:03.169Z,1007.86
2023-04-17T11:45:04.284Z,1007.86
2023-04-17T11:50:03.232Z,1007.99
2023-04-17T11:55:03.022Z,1008.13
2023-04-17T12:00:02.987Z,1008.19
2023-04-17T12:05:03.355Z,1008.27
2023-04-17T12:10:03.161Z,1008.29
2023-04-17T12:15:03.009Z,1008.28
2023-04-17T12:20:03.188Z,1008.27
2023-04-17T12:25:02.984Z,1008.2
2023-04-17T12:30:03.056Z,1008.18
2023-04-17T12:35:02.932Z,1008.2
2023-04-17T12:40:03.214Z,1008.22
2023-04-17T12:45:02.858Z,1008.21
2023-04-17T12:50:03.047Z,1008.22
2023-04-17T12:55:03.171Z,1008.19
2023-04-17T13:00:03.070Z,1008.27
2023-04-17T13:05:03.060Z,1008.2
2023-04-17T13:10:03.153Z,1008.27
2023-04-17T13:15:02.980Z,1008.21
2023-04-17T13:20:03.087Z,1008.3
2023-04-17T13:25:02.984Z,1008.3
2023-04-17T13:30:03.042Z,1008.21
2023-04-17T13:35:02.958Z,1008.11
2023-04-17T13:40:08.077Z,1008.14
2023-04-17T13:45:03.132Z,1008.14
2023-04-17T13:50:03.060Z,1008.08
2023-04-17T13:55:03.035Z,1008.06
2023-04-17T14:00:03.090Z,1008.02
2023-04-17T14:05:03.122Z,1007.89
2023-04-17T14:10:03.041Z,1007.78
2023-04-17T14:15:03.017Z,1007.76
2023-04-17T14:20:03.278Z,1007.67
2023-04-17T14:25:03.005Z,1007.67
2023-04-17T14:30:03.088Z,1007.56
2023-04-17T14:35:03.131Z,1007.39
2023-04-17T14:40:03.080Z,1007.39
2023-04-17T14:45:02.954Z,1007.34
2023-04-17T14:50:03.007Z,1007.33
2023-04-17T14:55:02.936Z,1007.22
2023-04-17T15:00:03.187Z,1007.13
2023-04-17T15:05:03.001Z,1007.1
2023-04-17T15:10:03.053Z,1007.0
2023-04-17T15:15:04.061Z,1006.96
2023-04-17T15:20:03.211Z,1006.84
2023-04-17T15:25:02.966Z,1006.83
2023-04-17T15:30:03.043Z,1006.76
2023-04-17T15:35:03.012Z,1006.74
2023-04-17T15:40:03.163Z,1006.65
2023-04-17T15:45:03.175Z,1006.59
2023-04-17T15:50:03.132Z,1006.5
2023-04-17T15:55:02.974Z,1006.4
2023-04-17T16:00:03.206Z,1006.38
2023-04-17T16:05:03.075Z,1006.42
2023-04-17T16:10:03.051Z,1006.34
2023-04-17T16:15:02.984Z,1006.2
2023-04-17T16:20:03.050Z,1006.11
2023-04-17T16:25:02.939Z,1005.94
2023-04-17T16:30:03.116Z,1005.92
2023-04-17T16:35:03.126Z,1005.76
2023-04-17T16:40:03.124Z,1005.68
2023-04-17T16:45:03.040Z,1005.59
2023-04-17T16:50:03.118Z,1005.5
2023-04-17T16:55:03.301Z,1005.46
2023-04-17T17:00:03.175Z,1005.5
2023-04-17T17:05:03.027Z,1005.44
2023-04-17T17:10:03.090Z,1005.23
2023-04-17T17:15:02.946Z,1005.15
2023-04-17T17:20:03.108Z,1005.09
2023-04-17T17:25:03.122Z,1005.03
2023-04-17T17:30:03.088Z,1004.81
2023-04-17T17:35:02.968Z,1004.67
2023-04-17T17:40:03.062Z,1004.5
2023-04-17T17:45:02.936Z,1004.4
2023-04-17T17:50:03.174Z,1004.4
2023-04-17T17:55:02.988Z,1004.5
2023-04-17T18:00:03.193Z,1004.4
2023-04-17T18:05:03.076Z,1004.45
2023-04-17T18:10:03.052Z,1004.25
2023-04-17T18:15:02.957Z,1004.09
2023-04-17T18:20:03.108Z,1003.94
2023-04-17T18:25:02.984Z,1003.92
2023-04-17T18:30:03.168Z,1003.9
2023-04-17T18:35:03.148Z,1003.9
2023-04-17T18:40:03.102Z,1003.76
2023-04-17T18:45:02.985Z,1003.61
2023-04-17T18:50:03.089Z,1003.69
2023-04-17T18:55:03.068Z,1003.59
2023-04-17T19:00:03.143Z,1003.31
2023-04-17T19:05:03.103Z,1003.57
2023-04-17T19:10:03.086Z,1003.59
2023-04-17T19:15:02.985Z,1003.59
2023-04-17T19:20:03.077Z,1003.57
2023-04-17T19:25:03.043Z,1003.67
2023-04-17T19:30:03.097Z,1003.75
2023-04-17T19:35:03.109Z,1003.66
2023-04-17T19:40:06.397Z,1003.76
2023-04-17T19:45:03.038Z,1003.7
2023-04-17T19:50:04.227Z,1003.75
2023-04-17T19:55:02.975Z,1003.9
2023-04-17T20:00:03.090Z,1003.93
2023-04-17T20:05:03.184Z,1003.86
2023-04-17T20:10:03.048Z,1003.84
2023-04-17T20:15:03.197Z,1003.8
2023-04-17T20:20:03.043Z,1003.84
2023-04-17T20:25:02.994Z,1003.69
2023-04-17T20:30:03.041Z,1003.41
2023-04-17T20:35:03.109Z,1003.16
2023-04-17T20:40:03.275Z,1002.93
2023-04-17T20:45:02.977Z,1003.01
2023-04-17T20:50:03.189Z,1003.0
2023-04-17T20:55:02.948Z,1003.05
2023-04-17T21:00:03.269Z,1003.35
2023-04-17T21:05:03.047Z,1003.73
2023-04-17T21:10:03.026Z,1003.8
2023-04-17T21:15:02.974Z,1003.86
2023-04-17T21:20:03.133Z,1003.91
2023-04-17T21:25:02.937Z,1003.91
2023-04-17T21:30:03.254Z,1003.91
2023-04-17T21:35:03.054Z,1003.84
2023-04-17T21:40:08.188Z,1003.84
2023-04-17T21:45:03.158Z,1003.82
2023-04-17T21:50:03.151Z,1003.78
2023-04-17T21:55:03.301Z,1003.67
2023-04-17T22:00:03.216Z,1003.75
2023-04-17T22:05:03.033Z,1003.71
2023-04-17T22:10:03.295Z,1003.62
2023-04-17T22:15:02.941Z,1003.75
2023-04-17T22:20:03.184Z,1003.79
2023-04-17T22:25:03.117Z,1003.83
2023-04-17T22:30:03.031Z,1003.97
2023-04-17T22:35:02.976Z,1004.28
2023-04-17T22:40:03.108Z,1004.34
2023-04-17T22:45:03.257Z,1004.4
2023-04-17T22:50:02.968Z,1004.25
2023-04-17T22:55:03.205Z,1004.1
2023-04-17T23:00:03.309Z,1004.0
2023-04-17T23:05:03.033Z,1003.8
2023-04-17T23:10:03.134Z,1003.9
2023-04-17T23:15:03.162Z,1004.07
2023-04-17T23:20:03.128Z,1004.32
2023-04-17T23:25:03.201Z,1004.32
2023-04-17T23:30:03.084Z,1004.3
2023-04-17T23:35:02.974Z,1004.32
2023-04-17T23:40:03.256Z,1004.37
2023-04-17T23:45:03.159Z,1004.43
2023-04-17T23:50:03.163Z,1004.37
2023-04-17T23:55:03.039Z,1004.34
